sensor_id;sensor_type;location;lat;lon;timestamp;P1;durP1;ratioP1;P2;durP2;ratioP2
51800;SDS011;37855;53.204;6.568;2024-01-27T00:00:18;24.33;;;3.30;;
51800;SDS011;37855;53.204;6.568;2024-01-27T00:02:44;23.17;;;3.38;;
51800;SDS011;37855;53.204;6.568;2024-01-27T00:05:10;20.47;;;3.37;;
51800;SDS011;37855;53.204;6.568;2024-01-27T00:07:36;21.73;;;3.17;;
51800;SDS011;37855;53.204;6.568;2024-01-27T00:10:02;26.85;;;4.10;;
51800;SDS011;37855;53.204;6.568;2024-01-27T00:12:28;18.67;;;3.37;;
51800;SDS011;37855;53.204;6.568;2024-01-27T00:14:53;19.35;;;3.28;;
51800;SDS011;37855;53.204;6.568;2024-01-27T00:17:19;21.83;;;5.10;;
51800;SDS011;37855;53.204;6.568;2024-01-27T00:19:50;20.23;;;3.80;;
51800;SDS011;37855;53.204;6.568;2024-01-27T00:22:16;20.20;;;3.70;;
51800;SDS011;37855;53.204;6.568;2024-01-27T00:24:42;22.33;;;3.70;;
51800;SDS011;37855;53.204;6.568;2024-01-27T00:27:11;19.05;;;3.08;;
51800;SDS011;37855;53.204;6.568;2024-01-27T00:29:36;19.83;;;3.55;;
51800;SDS011;37855;53.204;6.568;2024-01-27T00:32:02;21.93;;;4.20;;
51800;SDS011;37855;53.204;6.568;2024-01-27T00:34:28;19.40;;;3.80;;
51800;SDS011;37855;53.204;6.568;2024-01-27T00:36:53;20.20;;;3.50;;
51800;SDS011;37855;53.204;6.568;2024-01-27T00:39:19;16.73;;;3.03;;
51800;SDS011;37855;53.204;6.568;2024-01-27T00:41:45;28.33;;;3.58;;
51800;SDS011;37855;53.204;6.568;2024-01-27T00:44:10;19.90;;;3.17;;
51800;SDS011;37855;53.204;6.568;2024-01-27T00:46:39;22.38;;;3.17;;
51800;SDS011;37855;53.204;6.568;2024-01-27T00:49:04;16.35;;;3.20;;
51800;SDS011;37855;53.204;6.568;2024-01-27T00:51:30;20.33;;;3.20;;
51800;SDS011;37855;53.204;6.568;2024-01-27T00:53:57;17.20;;;3.05;;
51800;SDS011;37855;53.204;6.568;2024-01-27T00:56:23;20.60;;;3.57;;
51800;SDS011;37855;53.204;6.568;2024-01-27T00:58:48;20.92;;;3.25;;
51800;SDS011;37855;53.204;6.568;2024-01-27T01:01:14;19.50;;;3.70;;
51800;SDS011;37855;53.204;6.568;2024-01-27T01:03:40;20.15;;;3.05;;
51800;SDS011;37855;53.204;6.568;2024-01-27T01:06:05;19.20;;;3.97;;
51800;SDS011;37855;53.204;6.568;2024-01-27T01:08:34;18.57;;;3.70;;
51800;SDS011;37855;53.204;6.568;2024-01-27T01:10:59;22.60;;;3.53;;
51800;SDS011;37855;53.204;6.568;2024-01-27T01:13:25;15.88;;;2.90;;
51800;SDS011;37855;53.204;6.568;2024-01-27T01:15:50;19.80;;;3.50;;
51800;SDS011;37855;53.204;6.568;2024-01-27T01:18:16;17.70;;;4.03;;
51800;SDS011;37855;53.204;6.568;2024-01-27T01:20:42;15.97;;;2.80;;
51800;SDS011;37855;53.204;6.568;2024-01-27T01:23:08;16.75;;;3.20;;
51800;SDS011;37855;53.204;6.568;2024-01-27T01:25:33;20.33;;;2.87;;
51800;SDS011;37855;53.204;6.568;2024-01-27T01:27:59;16.83;;;2.97;;
51800;SDS011;37855;53.204;6.568;2024-01-27T01:30:24;21.97;;;3.50;;
51800;SDS011;37855;53.204;6.568;2024-01-27T01:32:50;20.40;;;3.47;;
51800;SDS011;37855;53.204;6.568;2024-01-27T01:35:16;16.63;;;3.10;;
51800;SDS011;37855;53.204;6.568;2024-01-27T01:37:42;18.83;;;3.95;;
51800;SDS011;37855;53.204;6.568;2024-01-27T01:40:08;21.33;;;3.30;;
51800;SDS011;37855;53.204;6.568;2024-01-27T01:42:34;16.70;;;3.20;;
51800;SDS011;37855;53.204;6.568;2024-01-27T01:44:59;18.87;;;3.27;;
51800;SDS011;37855;53.204;6.568;2024-01-27T01:47:25;18.95;;;3.17;;
51800;SDS011;37855;53.204;6.568;2024-01-27T01:49:51;19.13;;;3.37;;
51800;SDS011;37855;53.204;6.568;2024-01-27T01:52:18;24.85;;;3.35;;
51800;SDS011;37855;53.204;6.568;2024-01-27T01:54:47;19.05;;;3.08;;
51800;SDS011;37855;53.204;6.568;2024-01-27T01:57:14;17.63;;;3.03;;
51800;SDS011;37855;53.204;6.568;2024-01-27T01:59:40;19.95;;;3.08;;
51800;SDS011;37855;53.204;6.568;2024-01-27T02:02:07;22.37;;;3.33;;
51800;SDS011;37855;53.204;6.568;2024-01-27T02:04:43;18.08;;;3.28;;
51800;SDS011;37855;53.204;6.568;2024-01-27T02:07:10;17.85;;;3.05;;
51800;SDS011;37855;53.204;6.568;2024-01-27T02:09:37;16.88;;;2.90;;
51800;SDS011;37855;53.204;6.568;2024-01-27T02:12:03;14.67;;;2.63;;
51800;SDS011;37855;53.204;6.568;2024-01-27T02:14:29;19.33;;;2.83;;
51800;SDS011;37855;53.204;6.568;2024-01-27T02:16:55;18.98;;;3.00;;
51800;SDS011;37855;53.204;6.568;2024-01-27T02:19:21;15.98;;;2.80;;
51800;SDS011;37855;53.204;6.568;2024-01-27T02:21:47;19.73;;;3.60;;
51800;SDS011;37855;53.204;6.568;2024-01-27T02:24:13;21.47;;;3.03;;
51800;SDS011;37855;53.204;6.568;2024-01-27T02:26:38;14.63;;;2.70;;
51800;SDS011;37855;53.204;6.568;2024-01-27T02:29:04;26.52;;;3.55;;
51800;SDS011;37855;53.204;6.568;2024-01-27T02:31:29;21.40;;;2.90;;
51800;SDS011;37855;53.204;6.568;2024-01-27T02:33:55;14.82;;;3.20;;
51800;SDS011;37855;53.204;6.568;2024-01-27T02:36:21;12.90;;;2.23;;
51800;SDS011;37855;53.204;6.568;2024-01-27T02:38:46;15.00;;;2.30;;
51800;SDS011;37855;53.204;6.568;2024-01-27T02:41:12;16.45;;;3.10;;
51800;SDS011;37855;53.204;6.568;2024-01-27T02:43:38;15.70;;;2.77;;
51800;SDS011;37855;53.204;6.568;2024-01-27T02:46:06;14.50;;;3.03;;
51800;SDS011;37855;53.204;6.568;2024-01-27T02:48:39;14.17;;;2.90;;
51800;SDS011;37855;53.204;6.568;2024-01-27T02:51:07;14.52;;;2.92;;
51800;SDS011;37855;53.204;6.568;2024-01-27T02:53:32;14.95;;;2.92;;
51800;SDS011;37855;53.204;6.568;2024-01-27T02:55:58;18.87;;;2.70;;
51800;SDS011;37855;53.204;6.568;2024-01-27T02:58:23;17.20;;;2.80;;
51800;SDS011;37855;53.204;6.568;2024-01-27T03:00:49;17.95;;;2.63;;
51800;SDS011;37855;53.204;6.568;2024-01-27T03:03:15;18.37;;;3.17;;
51800;SDS011;37855;53.204;6.568;2024-01-27T03:05:40;14.53;;;2.93;;
51800;SDS011;37855;53.204;6.568;2024-01-27T03:08:06;17.47;;;2.73;;
51800;SDS011;37855;53.204;6.568;2024-01-27T03:10:32;17.52;;;2.67;;
51800;SDS011;37855;53.204;6.568;2024-01-27T03:12:57;19.83;;;2.73;;
51800;SDS011;37855;53.204;6.568;2024-01-27T03:15:23;18.90;;;3.15;;
51800;SDS011;37855;53.204;6.568;2024-01-27T03:17:49;17.40;;;2.83;;
51800;SDS011;37855;53.204;6.568;2024-01-27T03:20:14;18.13;;;3.40;;
51800;SDS011;37855;53.204;6.568;2024-01-27T03:22:40;17.65;;;2.78;;
51800;SDS011;37855;53.204;6.568;2024-01-27T03:25:07;16.10;;;2.72;;
51800;SDS011;37855;53.204;6.568;2024-01-27T03:27:36;17.77;;;2.93;;
51800;SDS011;37855;53.204;6.568;2024-01-27T03:30:02;15.32;;;2.67;;
51800;SDS011;37855;53.204;6.568;2024-01-27T03:32:29;17.90;;;3.13;;
51800;SDS011;37855;53.204;6.568;2024-01-27T03:34:57;13.53;;;2.57;;
51800;SDS011;37855;53.204;6.568;2024-01-27T03:37:24;20.17;;;3.30;;
51800;SDS011;37855;53.204;6.568;2024-01-27T03:39:49;21.40;;;3.10;;
51800;SDS011;37855;53.204;6.568;2024-01-27T03:42:15;21.73;;;3.13;;
51800;SDS011;37855;53.204;6.568;2024-01-27T03:44:41;17.93;;;2.70;;
51800;SDS011;37855;53.204;6.568;2024-01-27T03:47:06;19.33;;;3.40;;
51800;SDS011;37855;53.204;6.568;2024-01-27T03:49:32;20.57;;;2.90;;
51800;SDS011;37855;53.204;6.568;2024-01-27T03:51:57;16.17;;;3.38;;
51800;SDS011;37855;53.204;6.568;2024-01-27T03:54:23;19.53;;;3.40;;
51800;SDS011;37855;53.204;6.568;2024-01-27T03:56:49;17.40;;;3.67;;
51800;SDS011;37855;53.204;6.568;2024-01-27T03:59:14;18.13;;;2.80;;
51800;SDS011;37855;53.204;6.568;2024-01-27T04:01:40;19.30;;;3.23;;
51800;SDS011;37855;53.204;6.568;2024-01-27T04:04:05;15.10;;;3.08;;
51800;SDS011;37855;53.204;6.568;2024-01-27T04:06:40;20.10;;;3.30;;
51800;SDS011;37855;53.204;6.568;2024-01-27T04:09:06;15.20;;;2.63;;
51800;SDS011;37855;53.204;6.568;2024-01-27T04:11:34;13.30;;;2.58;;
51800;SDS011;37855;53.204;6.568;2024-01-27T04:14:00;19.20;;;3.10;;
51800;SDS011;37855;53.204;6.568;2024-01-27T04:16:27;15.63;;;3.17;;
51800;SDS011;37855;53.204;6.568;2024-01-27T04:18:52;16.25;;;2.75;;
51800;SDS011;37855;53.204;6.568;2024-01-27T04:21:18;20.70;;;3.73;;
51800;SDS011;37855;53.204;6.568;2024-01-27T04:23:43;15.35;;;2.70;;
51800;SDS011;37855;53.204;6.568;2024-01-27T04:26:09;16.43;;;3.03;;
51800;SDS011;37855;53.204;6.568;2024-01-27T04:28:35;14.40;;;3.17;;
51800;SDS011;37855;53.204;6.568;2024-01-27T04:31:01;24.77;;;4.00;;
51800;SDS011;37855;53.204;6.568;2024-01-27T04:33:27;20.17;;;2.90;;
51800;SDS011;37855;53.204;6.568;2024-01-27T04:35:53;16.50;;;3.03;;
51800;SDS011;37855;53.204;6.568;2024-01-27T04:38:18;14.53;;;2.93;;
51800;SDS011;37855;53.204;6.568;2024-01-27T04:40:44;13.27;;;3.03;;
51800;SDS011;37855;53.204;6.568;2024-01-27T04:43:10;18.23;;;3.17;;
51800;SDS011;37855;53.204;6.568;2024-01-27T04:45:39;16.83;;;3.53;;
51800;SDS011;37855;53.204;6.568;2024-01-27T04:48:05;18.35;;;3.13;;
51800;SDS011;37855;53.204;6.568;2024-01-27T04:50:30;23.20;;;4.23;;
51800;SDS011;37855;53.204;6.568;2024-01-27T04:52:59;11.25;;;2.50;;
51800;SDS011;37855;53.204;6.568;2024-01-27T04:55:25;15.18;;;2.90;;
51800;SDS011;37855;53.204;6.568;2024-01-27T04:57:51;17.43;;;3.60;;
51800;SDS011;37855;53.204;6.568;2024-01-27T05:00:18;17.95;;;3.08;;
51800;SDS011;37855;53.204;6.568;2024-01-27T05:02:44;17.35;;;2.97;;
51800;SDS011;37855;53.204;6.568;2024-01-27T05:05:10;19.05;;;3.38;;
51800;SDS011;37855;53.204;6.568;2024-01-27T05:07:37;15.73;;;2.50;;
51800;SDS011;37855;53.204;6.568;2024-01-27T05:10:05;16.83;;;2.70;;
51800;SDS011;37855;53.204;6.568;2024-01-27T05:12:31;16.98;;;3.20;;
51800;SDS011;37855;53.204;6.568;2024-01-27T05:14:57;17.03;;;2.90;;
51800;SDS011;37855;53.204;6.568;2024-01-27T05:17:22;17.20;;;2.65;;
51800;SDS011;37855;53.204;6.568;2024-01-27T05:19:49;20.17;;;3.20;;
51800;SDS011;37855;53.204;6.568;2024-01-27T05:22:15;15.57;;;3.40;;
51800;SDS011;37855;53.204;6.568;2024-01-27T05:24:41;18.70;;;3.27;;
51800;SDS011;37855;53.204;6.568;2024-01-27T05:27:06;17.73;;;3.03;;
51800;SDS011;37855;53.204;6.568;2024-01-27T05:29:32;13.03;;;2.60;;
51800;SDS011;37855;53.204;6.568;2024-01-27T05:31:58;15.88;;;3.95;;
51800;SDS011;37855;53.204;6.568;2024-01-27T05:34:23;16.13;;;3.03;;
51800;SDS011;37855;53.204;6.568;2024-01-27T05:36:49;19.73;;;3.57;;
51800;SDS011;37855;53.204;6.568;2024-01-27T05:39:14;17.35;;;2.95;;
51800;SDS011;37855;53.204;6.568;2024-01-27T05:41:40;15.33;;;2.47;;
51800;SDS011;37855;53.204;6.568;2024-01-27T05:44:06;14.77;;;3.08;;
51800;SDS011;37855;53.204;6.568;2024-01-27T05:46:31;19.97;;;3.50;;
51800;SDS011;37855;53.204;6.568;2024-01-27T05:48:57;19.87;;;2.87;;
51800;SDS011;37855;53.204;6.568;2024-01-27T05:51:27;19.38;;;2.97;;
51800;SDS011;37855;53.204;6.568;2024-01-27T05:53:53;20.95;;;2.65;;
51800;SDS011;37855;53.204;6.568;2024-01-27T05:56:19;13.70;;;2.80;;
51800;SDS011;37855;53.204;6.568;2024-01-27T05:58:47;20.55;;;3.13;;
51800;SDS011;37855;53.204;6.568;2024-01-27T06:01:13;14.35;;;2.83;;
51800;SDS011;37855;53.204;6.568;2024-01-27T06:03:42;12.90;;;2.90;;
51800;SDS011;37855;53.204;6.568;2024-01-27T06:06:08;10.52;;;2.50;;
51800;SDS011;37855;53.204;6.568;2024-01-27T06:08:37;14.32;;;2.88;;
51800;SDS011;37855;53.204;6.568;2024-01-27T06:11:03;14.40;;;3.05;;
51800;SDS011;37855;53.204;6.568;2024-01-27T06:13:28;14.33;;;3.40;;
51800;SDS011;37855;53.204;6.568;2024-01-27T06:15:54;14.75;;;2.55;;
51800;SDS011;37855;53.204;6.568;2024-01-27T06:18:20;12.83;;;2.10;;
51800;SDS011;37855;53.204;6.568;2024-01-27T06:20:46;15.10;;;2.55;;
51800;SDS011;37855;53.204;6.568;2024-01-27T06:23:12;15.57;;;2.80;;
51800;SDS011;37855;53.204;6.568;2024-01-27T06:25:37;18.50;;;2.78;;
51800;SDS011;37855;53.204;6.568;2024-01-27T06:28:03;15.33;;;2.40;;
51800;SDS011;37855;53.204;6.568;2024-01-27T06:30:29;21.42;;;3.50;;
51800;SDS011;37855;53.204;6.568;2024-01-27T06:32:54;13.77;;;2.67;;
51800;SDS011;37855;53.204;6.568;2024-01-27T06:35:20;15.27;;;2.90;;
51800;SDS011;37855;53.204;6.568;2024-01-27T06:37:45;21.20;;;3.53;;
51800;SDS011;37855;53.204;6.568;2024-01-27T06:40:12;15.55;;;3.10;;
51800;SDS011;37855;53.204;6.568;2024-01-27T06:42:37;13.53;;;3.30;;
51800;SDS011;37855;53.204;6.568;2024-01-27T06:45:03;14.40;;;2.85;;
51800;SDS011;37855;53.204;6.568;2024-01-27T06:47:29;13.20;;;3.17;;
51800;SDS011;37855;53.204;6.568;2024-01-27T06:49:55;16.73;;;2.77;;
51800;SDS011;37855;53.204;6.568;2024-01-27T06:52:20;15.77;;;3.17;;
51800;SDS011;37855;53.204;6.568;2024-01-27T06:54:46;19.58;;;2.65;;
51800;SDS011;37855;53.204;6.568;2024-01-27T06:57:21;18.93;;;3.00;;
51800;SDS011;37855;53.204;6.568;2024-01-27T06:59:48;16.52;;;3.22;;
51800;SDS011;37855;53.204;6.568;2024-01-27T07:02:26;19.17;;;3.00;;
51800;SDS011;37855;53.204;6.568;2024-01-27T07:04:53;15.23;;;3.45;;
51800;SDS011;37855;53.204;6.568;2024-01-27T07:07:21;22.85;;;3.35;;
51800;SDS011;37855;53.204;6.568;2024-01-27T07:09:49;18.13;;;3.73;;
51800;SDS011;37855;53.204;6.568;2024-01-27T07:12:18;17.08;;;3.45;;
51800;SDS011;37855;53.204;6.568;2024-01-27T07:14:44;15.70;;;3.00;;
51800;SDS011;37855;53.204;6.568;2024-01-27T07:17:09;16.67;;;2.60;;
51800;SDS011;37855;53.204;6.568;2024-01-27T07:19:35;17.03;;;3.40;;
51800;SDS011;37855;53.204;6.568;2024-01-27T07:22:00;14.35;;;2.80;;
51800;SDS011;37855;53.204;6.568;2024-01-27T07:24:31;21.17;;;3.20;;
51800;SDS011;37855;53.204;6.568;2024-01-27T07:26:57;16.75;;;2.85;;
51800;SDS011;37855;53.204;6.568;2024-01-27T07:29:24;18.00;;;3.55;;
51800;SDS011;37855;53.204;6.568;2024-01-27T07:31:50;12.47;;;2.50;;
51800;SDS011;37855;53.204;6.568;2024-01-27T07:34:15;17.77;;;3.50;;
51800;SDS011;37855;53.204;6.568;2024-01-27T07:36:41;17.48;;;2.90;;
51800;SDS011;37855;53.204;6.568;2024-01-27T07:39:07;15.40;;;3.33;;
51800;SDS011;37855;53.204;6.568;2024-01-27T07:41:33;11.82;;;2.75;;
51800;SDS011;37855;53.204;6.568;2024-01-27T07:44:13;15.02;;;2.90;;
51800;SDS011;37855;53.204;6.568;2024-01-27T07:46:39;17.52;;;3.20;;
51800;SDS011;37855;53.204;6.568;2024-01-27T07:49:06;13.40;;;3.37;;
51800;SDS011;37855;53.204;6.568;2024-01-27T07:51:32;16.70;;;3.35;;
51800;SDS011;37855;53.204;6.568;2024-01-27T07:53:59;9.88;;;2.35;;
51800;SDS011;37855;53.204;6.568;2024-01-27T07:56:25;16.88;;;3.50;;
51800;SDS011;37855;53.204;6.568;2024-01-27T07:58:51;17.60;;;3.42;;
51800;SDS011;37855;53.204;6.568;2024-01-27T08:01:17;14.37;;;2.67;;
51800;SDS011;37855;53.204;6.568;2024-01-27T08:03:43;17.95;;;3.78;;
51800;SDS011;37855;53.204;6.568;2024-01-27T08:06:16;12.63;;;2.80;;
51800;SDS011;37855;53.204;6.568;2024-01-27T08:08:44;12.73;;;3.35;;
51800;SDS011;37855;53.204;6.568;2024-01-27T08:11:14;22.33;;;4.50;;
51800;SDS011;37855;53.204;6.568;2024-01-27T08:13:40;14.15;;;3.50;;
51800;SDS011;37855;53.204;6.568;2024-01-27T08:16:06;15.73;;;3.55;;
51800;SDS011;37855;53.204;6.568;2024-01-27T08:18:34;20.60;;;3.77;;
51800;SDS011;37855;53.204;6.568;2024-01-27T08:21:03;16.92;;;3.67;;
51800;SDS011;37855;53.204;6.568;2024-01-27T08:23:28;15.88;;;3.35;;
51800;SDS011;37855;53.204;6.568;2024-01-27T08:25:54;16.53;;;4.13;;
51800;SDS011;37855;53.204;6.568;2024-01-27T08:28:20;15.80;;;3.70;;
51800;SDS011;37855;53.204;6.568;2024-01-27T08:30:45;18.73;;;3.53;;
51800;SDS011;37855;53.204;6.568;2024-01-27T08:33:11;18.75;;;3.20;;
51800;SDS011;37855;53.204;6.568;2024-01-27T08:35:37;12.97;;;3.57;;
51800;SDS011;37855;53.204;6.568;2024-01-27T08:38:03;16.27;;;3.90;;
51800;SDS011;37855;53.204;6.568;2024-01-27T08:40:31;15.48;;;3.60;;
51800;SDS011;37855;53.204;6.568;2024-01-27T08:43:00;20.20;;;4.15;;
51800;SDS011;37855;53.204;6.568;2024-01-27T08:45:28;14.20;;;3.80;;
51800;SDS011;37855;53.204;6.568;2024-01-27T08:47:54;16.30;;;3.55;;
51800;SDS011;37855;53.204;6.568;2024-01-27T08:50:20;15.60;;;3.53;;
51800;SDS011;37855;53.204;6.568;2024-01-27T08:52:46;20.15;;;3.67;;
51800;SDS011;37855;53.204;6.568;2024-01-27T08:55:12;18.73;;;4.00;;
51800;SDS011;37855;53.204;6.568;2024-01-27T08:57:37;24.33;;;3.95;;
51800;SDS011;37855;53.204;6.568;2024-01-27T09:00:03;19.83;;;3.73;;
51800;SDS011;37855;53.204;6.568;2024-01-27T09:02:29;17.80;;;3.60;;
51800;SDS011;37855;53.204;6.568;2024-01-27T09:04:55;15.43;;;4.70;;
51800;SDS011;37855;53.204;6.568;2024-01-27T09:07:21;15.60;;;3.45;;
51800;SDS011;37855;53.204;6.568;2024-01-27T09:09:49;14.90;;;4.07;;
51800;SDS011;37855;53.204;6.568;2024-01-27T09:12:14;15.43;;;3.70;;
51800;SDS011;37855;53.204;6.568;2024-01-27T09:14:40;17.13;;;4.15;;
51800;SDS011;37855;53.204;6.568;2024-01-27T09:17:05;16.70;;;3.97;;
51800;SDS011;37855;53.204;6.568;2024-01-27T09:19:31;18.65;;;3.78;;
51800;SDS011;37855;53.204;6.568;2024-01-27T09:21:57;16.70;;;4.00;;
51800;SDS011;37855;53.204;6.568;2024-01-27T09:24:23;19.40;;;4.15;;
51800;SDS011;37855;53.204;6.568;2024-01-27T09:26:48;15.23;;;4.37;;
51800;SDS011;37855;53.204;6.568;2024-01-27T09:29:14;23.30;;;4.75;;
51800;SDS011;37855;53.204;6.568;2024-01-27T09:31:40;13.23;;;4.73;;
51800;SDS011;37855;53.204;6.568;2024-01-27T09:34:05;21.33;;;5.20;;
51800;SDS011;37855;53.204;6.568;2024-01-27T09:36:34;20.80;;;4.57;;
51800;SDS011;37855;53.204;6.568;2024-01-27T09:39:00;17.58;;;4.55;;
51800;SDS011;37855;53.204;6.568;2024-01-27T09:41:26;17.43;;;4.60;;
51800;SDS011;37855;53.204;6.568;2024-01-27T09:43:58;23.33;;;5.15;;
51800;SDS011;37855;53.204;6.568;2024-01-27T09:46:28;17.65;;;5.07;;
51800;SDS011;37855;53.204;6.568;2024-01-27T09:48:55;17.17;;;4.90;;
51800;SDS011;37855;53.204;6.568;2024-01-27T09:51:21;17.97;;;4.80;;
51800;SDS011;37855;53.204;6.568;2024-01-27T09:53:47;19.17;;;4.93;;
51800;SDS011;37855;53.204;6.568;2024-01-27T09:56:15;19.80;;;4.93;;
51800;SDS011;37855;53.204;6.568;2024-01-27T09:58:43;17.88;;;4.65;;
51800;SDS011;37855;53.204;6.568;2024-01-27T10:01:09;18.05;;;5.00;;
51800;SDS011;37855;53.204;6.568;2024-01-27T10:03:36;18.57;;;4.80;;
51800;SDS011;37855;53.204;6.568;2024-01-27T10:06:07;17.52;;;4.35;;
51800;SDS011;37855;53.204;6.568;2024-01-27T10:08:33;23.58;;;5.38;;
51800;SDS011;37855;53.204;6.568;2024-01-27T10:10:59;19.53;;;4.97;;
51800;SDS011;37855;53.204;6.568;2024-01-27T10:13:30;19.25;;;4.90;;
51800;SDS011;37855;53.204;6.568;2024-01-27T10:16:02;18.88;;;4.38;;
51800;SDS011;37855;53.204;6.568;2024-01-27T10:18:29;17.92;;;4.60;;
51800;SDS011;37855;53.204;6.568;2024-01-27T10:20:55;15.23;;;4.78;;
51800;SDS011;37855;53.204;6.568;2024-01-27T10:23:21;23.80;;;5.83;;
51800;SDS011;37855;53.204;6.568;2024-01-27T10:25:47;15.80;;;4.40;;
51800;SDS011;37855;53.204;6.568;2024-01-27T10:28:14;17.17;;;5.15;;
51800;SDS011;37855;53.204;6.568;2024-01-27T10:30:39;19.50;;;5.43;;
51800;SDS011;37855;53.204;6.568;2024-01-27T10:33:07;20.77;;;5.00;;
51800;SDS011;37855;53.204;6.568;2024-01-27T10:35:35;16.63;;;4.72;;
51800;SDS011;37855;53.204;6.568;2024-01-27T10:38:01;16.43;;;4.17;;
51800;SDS011;37855;53.204;6.568;2024-01-27T10:40:29;19.00;;;4.82;;
51800;SDS011;37855;53.204;6.568;2024-01-27T10:43:02;17.20;;;5.10;;
51800;SDS011;37855;53.204;6.568;2024-01-27T10:45:48;17.10;;;4.65;;
51800;SDS011;37855;53.204;6.568;2024-01-27T10:48:14;19.85;;;5.35;;
51800;SDS011;37855;53.204;6.568;2024-01-27T10:50:41;21.38;;;5.38;;
51800;SDS011;37855;53.204;6.568;2024-01-27T10:53:15;24.67;;;5.88;;
51800;SDS011;37855;53.204;6.568;2024-01-27T10:55:50;21.00;;;4.83;;
51800;SDS011;37855;53.204;6.568;2024-01-27T10:58:18;18.77;;;5.47;;
51800;SDS011;37855;53.204;6.568;2024-01-27T11:00:45;21.42;;;5.32;;
51800;SDS011;37855;53.204;6.568;2024-01-27T11:03:15;21.48;;;4.85;;
51800;SDS011;37855;53.204;6.568;2024-01-27T11:05:43;16.58;;;4.80;;
51800;SDS011;37855;53.204;6.568;2024-01-27T11:08:11;15.80;;;4.70;;
51800;SDS011;37855;53.204;6.568;2024-01-27T11:10:38;17.17;;;5.82;;
51800;SDS011;37855;53.204;6.568;2024-01-27T11:13:04;19.52;;;4.72;;
51800;SDS011;37855;53.204;6.568;2024-01-27T11:15:30;21.33;;;4.65;;
51800;SDS011;37855;53.204;6.568;2024-01-27T11:17:57;17.02;;;5.05;;
51800;SDS011;37855;53.204;6.568;2024-01-27T11:20:27;20.27;;;4.70;;
51800;SDS011;37855;53.204;6.568;2024-01-27T11:22:55;16.05;;;4.70;;
51800;SDS011;37855;53.204;6.568;2024-01-27T11:25:22;29.80;;;6.10;;
51800;SDS011;37855;53.204;6.568;2024-01-27T11:27:48;20.10;;;4.72;;
51800;SDS011;37855;53.204;6.568;2024-01-27T11:30:29;17.67;;;4.53;;
51800;SDS011;37855;53.204;6.568;2024-01-27T11:33:00;18.88;;;4.75;;
51800;SDS011;37855;53.204;6.568;2024-01-27T11:35:26;12.50;;;4.38;;
51800;SDS011;37855;53.204;6.568;2024-01-27T11:37:53;18.33;;;4.38;;
51800;SDS011;37855;53.204;6.568;2024-01-27T11:40:19;14.77;;;4.00;;
51800;SDS011;37855;53.204;6.568;2024-01-27T11:42:58;14.30;;;4.33;;
51800;SDS011;37855;53.204;6.568;2024-01-27T11:45:25;17.30;;;3.90;;
51800;SDS011;37855;53.204;6.568;2024-01-27T11:47:54;16.48;;;4.63;;
51800;SDS011;37855;53.204;6.568;2024-01-27T11:50:21;19.33;;;4.30;;
51800;SDS011;37855;53.204;6.568;2024-01-27T11:52:47;15.68;;;3.75;;
51800;SDS011;37855;53.204;6.568;2024-01-27T11:55:13;17.23;;;4.10;;
51800;SDS011;37855;53.204;6.568;2024-01-27T11:57:41;19.48;;;4.25;;
51800;SDS011;37855;53.204;6.568;2024-01-27T12:00:07;20.63;;;4.70;;
51800;SDS011;37855;53.204;6.568;2024-01-27T12:02:36;21.23;;;3.85;;
51800;SDS011;37855;53.204;6.568;2024-01-27T12:05:03;12.73;;;3.83;;
51800;SDS011;37855;53.204;6.568;2024-01-27T12:07:29;18.05;;;3.63;;
51800;SDS011;37855;53.204;6.568;2024-01-27T12:09:56;15.25;;;3.72;;
51800;SDS011;37855;53.204;6.568;2024-01-27T12:12:22;17.53;;;3.60;;
51800;SDS011;37855;53.204;6.568;2024-01-27T12:14:48;15.48;;;3.40;;
51800;SDS011;37855;53.204;6.568;2024-01-27T12:17:15;16.93;;;3.73;;
51800;SDS011;37855;53.204;6.568;2024-01-27T12:19:52;14.48;;;3.45;;
51800;SDS011;37855;53.204;6.568;2024-01-27T12:22:25;19.05;;;4.18;;
51800;SDS011;37855;53.204;6.568;2024-01-27T12:24:52;15.30;;;3.20;;
51800;SDS011;37855;53.204;6.568;2024-01-27T12:27:19;16.38;;;4.47;;
51800;SDS011;37855;53.204;6.568;2024-01-27T12:29:47;18.27;;;3.57;;
51800;SDS011;37855;53.204;6.568;2024-01-27T12:32:14;14.43;;;3.30;;
51800;SDS011;37855;53.204;6.568;2024-01-27T12:34:40;18.23;;;4.15;;
51800;SDS011;37855;53.204;6.568;2024-01-27T12:37:07;11.07;;;3.05;;
51800;SDS011;37855;53.204;6.568;2024-01-27T12:39:35;16.65;;;3.50;;
51800;SDS011;37855;53.204;6.568;2024-01-27T12:42:00;17.00;;;3.23;;
51800;SDS011;37855;53.204;6.568;2024-01-27T12:44:29;20.35;;;3.67;;
51800;SDS011;37855;53.204;6.568;2024-01-27T12:46:55;12.97;;;3.40;;
51800;SDS011;37855;53.204;6.568;2024-01-27T12:49:22;17.60;;;3.65;;
51800;SDS011;37855;53.204;6.568;2024-01-27T12:51:47;14.45;;;3.13;;
51800;SDS011;37855;53.204;6.568;2024-01-27T12:54:13;13.80;;;3.07;;
51800;SDS011;37855;53.204;6.568;2024-01-27T12:56:40;16.92;;;3.63;;
51800;SDS011;37855;53.204;6.568;2024-01-27T12:59:05;16.77;;;3.40;;
51800;SDS011;37855;53.204;6.568;2024-01-27T13:01:33;16.50;;;3.65;;
51800;SDS011;37855;53.204;6.568;2024-01-27T13:03:59;16.55;;;3.47;;
51800;SDS011;37855;53.204;6.568;2024-01-27T13:06:25;16.90;;;3.00;;
51800;SDS011;37855;53.204;6.568;2024-01-27T13:08:51;18.33;;;3.30;;
51800;SDS011;37855;53.204;6.568;2024-01-27T13:11:17;14.50;;;3.60;;
51800;SDS011;37855;53.204;6.568;2024-01-27T13:13:42;14.53;;;3.50;;
51800;SDS011;37855;53.204;6.568;2024-01-27T13:16:09;20.70;;;3.80;;
51800;SDS011;37855;53.204;6.568;2024-01-27T13:18:35;28.20;;;4.30;;
51800;SDS011;37855;53.204;6.568;2024-01-27T13:21:03;17.50;;;3.33;;
51800;SDS011;37855;53.204;6.568;2024-01-27T13:23:31;17.33;;;3.58;;
51800;SDS011;37855;53.204;6.568;2024-01-27T13:25:57;17.20;;;3.53;;
51800;SDS011;37855;53.204;6.568;2024-01-27T13:28:25;19.25;;;3.67;;
51800;SDS011;37855;53.204;6.568;2024-01-27T13:30:51;17.08;;;2.97;;
51800;SDS011;37855;53.204;6.568;2024-01-27T13:33:16;17.23;;;3.40;;
51800;SDS011;37855;53.204;6.568;2024-01-27T13:35:42;19.73;;;3.30;;
51800;SDS011;37855;53.204;6.568;2024-01-27T13:38:11;18.25;;;3.70;;
51800;SDS011;37855;53.204;6.568;2024-01-27T13:40:37;15.65;;;3.40;;
51800;SDS011;37855;53.204;6.568;2024-01-27T13:43:03;18.33;;;3.13;;
51800;SDS011;37855;53.204;6.568;2024-01-27T13:45:30;16.20;;;3.22;;
51800;SDS011;37855;53.204;6.568;2024-01-27T13:47:56;16.92;;;3.80;;
51800;SDS011;37855;53.204;6.568;2024-01-27T13:50:22;17.85;;;3.65;;
51800;SDS011;37855;53.204;6.568;2024-01-27T13:52:50;15.13;;;3.60;;
51800;SDS011;37855;53.204;6.568;2024-01-27T13:55:16;15.30;;;3.10;;
51800;SDS011;37855;53.204;6.568;2024-01-27T13:57:41;22.67;;;3.80;;
51800;SDS011;37855;53.204;6.568;2024-01-27T14:00:08;14.02;;;3.10;;
51800;SDS011;37855;53.204;6.568;2024-01-27T14:02:35;15.03;;;3.20;;
51800;SDS011;37855;53.204;6.568;2024-01-27T14:05:00;14.98;;;3.53;;
51800;SDS011;37855;53.204;6.568;2024-01-27T14:07:29;14.80;;;3.25;;
51800;SDS011;37855;53.204;6.568;2024-01-27T14:09:55;18.30;;;3.23;;
51800;SDS011;37855;53.204;6.568;2024-01-27T14:12:21;14.70;;;3.15;;
51800;SDS011;37855;53.204;6.568;2024-01-27T14:14:48;13.40;;;3.83;;
51800;SDS011;37855;53.204;6.568;2024-01-27T14:17:14;10.80;;;2.92;;
51800;SDS011;37855;53.204;6.568;2024-01-27T14:19:40;15.57;;;3.35;;
51800;SDS011;37855;53.204;6.568;2024-01-27T14:22:05;19.57;;;4.53;;
51800;SDS011;37855;53.204;6.568;2024-01-27T14:24:31;15.87;;;3.97;;
51800;SDS011;37855;53.204;6.568;2024-01-27T14:26:58;15.00;;;3.23;;
51800;SDS011;37855;53.204;6.568;2024-01-27T14:29:24;17.52;;;3.90;;